sensor_id;sensor_type;location;lat;lon;timestamp;P1;durP1;ratioP1;P2;durP2;ratioP2
81374;SDS011;70828;51.158;4.998;2023-06-22T00:01:09;8.27;;;5.70;;
81374;SDS011;70828;51.158;4.998;2023-06-22T00:03:36;10.38;;;6.88;;
81374;SDS011;70828;51.158;4.998;2023-06-22T00:06:02;8.15;;;6.05;;
81374;SDS011;70828;51.158;4.998;2023-06-22T00:08:29;8.30;;;6.82;;
81374;SDS011;70828;51.158;4.998;2023-06-22T00:10:56;9.77;;;6.78;;
81374;SDS011;70828;51.158;4.998;2023-06-22T00:13:22;12.25;;;6.93;;
81374;SDS011;70828;51.158;4.998;2023-06-22T00:15:49;11.07;;;6.53;;
81374;SDS011;70828;51.158;4.998;2023-06-22T00:18:17;8.40;;;6.45;;
81374;SDS011;70828;51.158;4.998;2023-06-22T00:20:44;9.88;;;6.65;;
81374;SDS011;70828;51.158;4.998;2023-06-22T00:23:10;13.80;;;7.22;;
81374;SDS011;70828;51.158;4.998;2023-06-22T00:25:40;10.80;;;7.45;;
81374;SDS011;70828;51.158;4.998;2023-06-22T00:28:07;12.23;;;6.10;;
81374;SDS011;70828;51.158;4.998;2023-06-22T00:30:34;13.40;;;7.13;;
81374;SDS011;70828;51.158;4.998;2023-06-22T00:33:00;8.43;;;6.32;;
81374;SDS011;70828;51.158;4.998;2023-06-22T00:35:29;8.90;;;6.28;;
81374;SDS011;70828;51.158;4.998;2023-06-22T00:37:55;9.52;;;6.10;;
81374;SDS011;70828;51.158;4.998;2023-06-22T00:40:26;10.73;;;6.00;;
81374;SDS011;70828;51.158;4.998;2023-06-22T00:42:53;10.05;;;6.63;;
81374;SDS011;70828;51.158;4.998;2023-06-22T00:45:20;8.77;;;6.40;;
81374;SDS011;70828;51.158;4.998;2023-06-22T00:47:48;12.27;;;6.10;;
81374;SDS011;70828;51.158;4.998;2023-06-22T00:50:16;9.57;;;6.03;;
81374;SDS011;70828;51.158;4.998;2023-06-22T00:52:48;8.70;;;5.55;;
81374;SDS011;70828;51.158;4.998;2023-06-22T00:55:17;8.38;;;5.60;;
81374;SDS011;70828;51.158;4.998;2023-06-22T00:57:45;9.07;;;6.03;;
81374;SDS011;70828;51.158;4.998;2023-06-22T01:00:12;8.55;;;6.18;;
81374;SDS011;70828;51.158;4.998;2023-06-22T01:02:40;12.43;;;5.32;;
81374;SDS011;70828;51.158;4.998;2023-06-22T01:05:07;9.75;;;6.05;;
81374;SDS011;70828;51.158;4.998;2023-06-22T01:07:34;8.55;;;5.70;;
81374;SDS011;70828;51.158;4.998;2023-06-22T01:10:06;8.25;;;5.82;;
81374;SDS011;70828;51.158;4.998;2023-06-22T01:12:36;8.70;;;6.00;;
81374;SDS011;70828;51.158;4.998;2023-06-22T01:15:08;9.95;;;6.20;;
81374;SDS011;70828;51.158;4.998;2023-06-22T01:17:37;8.50;;;5.60;;
81374;SDS011;70828;51.158;4.998;2023-06-22T01:22:36;6.90;;;5.18;;
81374;SDS011;70828;51.158;4.998;2023-06-22T01:25:11;11.07;;;7.13;;
81374;SDS011;70828;51.158;4.998;2023-06-22T01:27:40;9.57;;;5.45;;
81374;SDS011;70828;51.158;4.998;2023-06-22T01:30:15;10.23;;;6.38;;
81374;SDS011;70828;51.158;4.998;2023-06-22T01:32:43;9.00;;;6.07;;
81374;SDS011;70828;51.158;4.998;2023-06-22T01:35:10;14.50;;;5.68;;
81374;SDS011;70828;51.158;4.998;2023-06-22T01:37:37;9.35;;;6.10;;
81374;SDS011;70828;51.158;4.998;2023-06-22T01:40:05;8.85;;;6.30;;
81374;SDS011;70828;51.158;4.998;2023-06-22T01:42:33;10.77;;;6.10;;
81374;SDS011;70828;51.158;4.998;2023-06-22T01:45:00;8.57;;;6.05;;
81374;SDS011;70828;51.158;4.998;2023-06-22T01:47:29;8.10;;;6.07;;
81374;SDS011;70828;51.158;4.998;2023-06-22T01:49:56;11.80;;;6.15;;
81374;SDS011;70828;51.158;4.998;2023-06-22T01:52:22;9.13;;;6.25;;
81374;SDS011;70828;51.158;4.998;2023-06-22T01:54:49;7.80;;;5.80;;
81374;SDS011;70828;51.158;4.998;2023-06-22T01:57:16;10.20;;;6.22;;
81374;SDS011;70828;51.158;4.998;2023-06-22T01:59:44;8.07;;;5.75;;
81374;SDS011;70828;51.158;4.998;2023-06-22T02:02:15;11.77;;;5.65;;
81374;SDS011;70828;51.158;4.998;2023-06-22T02:04:46;10.45;;;6.32;;
81374;SDS011;70828;51.158;4.998;2023-06-22T02:07:15;9.38;;;5.72;;
81374;SDS011;70828;51.158;4.998;2023-06-22T02:09:44;9.20;;;5.60;;
81374;SDS011;70828;51.158;4.998;2023-06-22T02:12:11;8.35;;;6.05;;
81374;SDS011;70828;51.158;4.998;2023-06-22T02:14:39;9.75;;;6.07;;
81374;SDS011;70828;51.158;4.998;2023-06-22T02:17:07;8.52;;;6.10;;
81374;SDS011;70828;51.158;4.998;2023-06-22T02:19:35;9.07;;;6.30;;
81374;SDS011;70828;51.158;4.998;2023-06-22T02:22:04;11.15;;;6.60;;
81374;SDS011;70828;51.158;4.998;2023-06-22T02:24:31;9.60;;;5.90;;
81374;SDS011;70828;51.158;4.998;2023-06-22T02:26:58;9.23;;;5.88;;
81374;SDS011;70828;51.158;4.998;2023-06-22T02:29:25;16.05;;;6.63;;
81374;SDS011;70828;51.158;4.998;2023-06-22T02:31:52;10.82;;;6.38;;
81374;SDS011;70828;51.158;4.998;2023-06-22T02:34:19;12.07;;;6.93;;
81374;SDS011;70828;51.158;4.998;2023-06-22T02:36:46;12.73;;;6.45;;
81374;SDS011;70828;51.158;4.998;2023-06-22T02:39:18;12.52;;;6.70;;
81374;SDS011;70828;51.158;4.998;2023-06-22T02:41:45;9.18;;;6.47;;
81374;SDS011;70828;51.158;4.998;2023-06-22T02:44:12;12.07;;;6.85;;
81374;SDS011;70828;51.158;4.998;2023-06-22T02:46:38;10.65;;;6.32;;
81374;SDS011;70828;51.158;4.998;2023-06-22T02:49:05;9.02;;;6.53;;
81374;SDS011;70828;51.158;4.998;2023-06-22T02:51:32;9.82;;;6.57;;
81374;SDS011;70828;51.158;4.998;2023-06-22T02:54:00;10.18;;;6.55;;
81374;SDS011;70828;51.158;4.998;2023-06-22T02:56:28;9.57;;;6.32;;
81374;SDS011;70828;51.158;4.998;2023-06-22T02:58:55;10.15;;;6.55;;
81374;SDS011;70828;51.158;4.998;2023-06-22T03:01:26;11.95;;;7.03;;
81374;SDS011;70828;51.158;4.998;2023-06-22T03:03:53;10.73;;;6.78;;
81374;SDS011;70828;51.158;4.998;2023-06-22T03:06:19;13.52;;;6.32;;
81374;SDS011;70828;51.158;4.998;2023-06-22T03:08:48;11.60;;;6.85;;
81374;SDS011;70828;51.158;4.998;2023-06-22T03:11:15;11.98;;;6.72;;
81374;SDS011;70828;51.158;4.998;2023-06-22T03:13:43;13.93;;;7.43;;
81374;SDS011;70828;51.158;4.998;2023-06-22T03:16:10;11.43;;;7.78;;
81374;SDS011;70828;51.158;4.998;2023-06-22T03:18:37;13.00;;;7.65;;
81374;SDS011;70828;51.158;4.998;2023-06-22T03:21:03;10.23;;;6.60;;
81374;SDS011;70828;51.158;4.998;2023-06-22T03:23:30;11.10;;;7.18;;
81374;SDS011;70828;51.158;4.998;2023-06-22T03:25:57;9.88;;;6.63;;
81374;SDS011;70828;51.158;4.998;2023-06-22T03:28:23;11.45;;;7.88;;
81374;SDS011;70828;51.158;4.998;2023-06-22T03:30:51;12.80;;;7.93;;
81374;SDS011;70828;51.158;4.998;2023-06-22T03:33:18;11.00;;;7.35;;
81374;SDS011;70828;51.158;4.998;2023-06-22T03:35:44;12.93;;;7.45;;
81374;SDS011;70828;51.158;4.998;2023-06-22T03:38:11;13.05;;;8.32;;
81374;SDS011;70828;51.158;4.998;2023-06-22T03:40:37;10.98;;;7.00;;
81374;SDS011;70828;51.158;4.998;2023-06-22T03:43:04;15.07;;;7.72;;
81374;SDS011;70828;51.158;4.998;2023-06-22T03:45:31;11.88;;;8.00;;
81374;SDS011;70828;51.158;4.998;2023-06-22T03:48:00;13.20;;;8.07;;
81374;SDS011;70828;51.158;4.998;2023-06-22T03:50:27;11.45;;;7.38;;
81374;SDS011;70828;51.158;4.998;2023-06-22T03:52:53;15.52;;;7.97;;
81374;SDS011;70828;51.158;4.998;2023-06-22T03:55:20;11.27;;;7.30;;
81374;SDS011;70828;51.158;4.998;2023-06-22T03:57:47;13.52;;;7.95;;
81374;SDS011;70828;51.158;4.998;2023-06-22T04:00:14;12.68;;;7.63;;
81374;SDS011;70828;51.158;4.998;2023-06-22T04:02:42;12.60;;;7.85;;
81374;SDS011;70828;51.158;4.998;2023-06-22T04:05:10;16.05;;;8.27;;
81374;SDS011;70828;51.158;4.998;2023-06-22T04:07:36;12.32;;;7.75;;
81374;SDS011;70828;51.158;4.998;2023-06-22T04:10:03;12.07;;;7.75;;
81374;SDS011;70828;51.158;4.998;2023-06-22T04:12:30;12.18;;;7.70;;
81374;SDS011;70828;51.158;4.998;2023-06-22T04:14:57;11.93;;;7.60;;
81374;SDS011;70828;51.158;4.998;2023-06-22T04:17:23;10.15;;;7.13;;
81374;SDS011;70828;51.158;4.998;2023-06-22T04:19:51;15.55;;;8.25;;
81374;SDS011;70828;51.158;4.998;2023-06-22T04:22:19;14.43;;;8.32;;
81374;SDS011;70828;51.158;4.998;2023-06-22T04:24:45;10.85;;;7.15;;
81374;SDS011;70828;51.158;4.998;2023-06-22T04:27:12;10.82;;;7.38;;
81374;SDS011;70828;51.158;4.998;2023-06-22T04:29:39;15.32;;;8.02;;
81374;SDS011;70828;51.158;4.998;2023-06-22T04:32:13;13.75;;;7.68;;
81374;SDS011;70828;51.158;4.998;2023-06-22T04:34:40;12.23;;;7.70;;
81374;SDS011;70828;51.158;4.998;2023-06-22T04:37:07;15.65;;;8.35;;
81374;SDS011;70828;51.158;4.998;2023-06-22T04:39:35;12.20;;;8.02;;
81374;SDS011;70828;51.158;4.998;2023-06-22T04:42:02;11.77;;;7.40;;
81374;SDS011;70828;51.158;4.998;2023-06-22T04:44:29;12.98;;;8.05;;
81374;SDS011;70828;51.158;4.998;2023-06-22T04:46:56;14.60;;;8.52;;
81374;SDS011;70828;51.158;4.998;2023-06-22T04:49:25;14.30;;;8.95;;
81374;SDS011;70828;51.158;4.998;2023-06-22T04:51:58;15.18;;;9.63;;
81374;SDS011;70828;51.158;4.998;2023-06-22T04:54:25;15.55;;;8.65;;
81374;SDS011;70828;51.158;4.998;2023-06-22T04:56:53;15.70;;;9.13;;
81374;SDS011;70828;51.158;4.998;2023-06-22T04:59:21;12.65;;;9.13;;
81374;SDS011;70828;51.158;4.998;2023-06-22T05:01:53;14.75;;;9.75;;
81374;SDS011;70828;51.158;4.998;2023-06-22T05:04:21;17.70;;;10.85;;
81374;SDS011;70828;51.158;4.998;2023-06-22T05:06:48;17.60;;;11.40;;
81374;SDS011;70828;51.158;4.998;2023-06-22T05:09:15;18.65;;;9.95;;
81374;SDS011;70828;51.158;4.998;2023-06-22T05:11:42;18.27;;;11.10;;
81374;SDS011;70828;51.158;4.998;2023-06-22T05:14:10;18.27;;;11.60;;
81374;SDS011;70828;51.158;4.998;2023-06-22T05:16:37;16.77;;;10.93;;
81374;SDS011;70828;51.158;4.998;2023-06-22T05:19:04;17.13;;;10.90;;
81374;SDS011;70828;51.158;4.998;2023-06-22T05:21:31;18.50;;;10.32;;
81374;SDS011;70828;51.158;4.998;2023-06-22T05:23:57;19.83;;;10.68;;
81374;SDS011;70828;51.158;4.998;2023-06-22T05:26:25;17.42;;;10.98;;
81374;SDS011;70828;51.158;4.998;2023-06-22T05:28:52;17.23;;;10.40;;
81374;SDS011;70828;51.158;4.998;2023-06-22T05:31:20;17.00;;;11.05;;
81374;SDS011;70828;51.158;4.998;2023-06-22T05:33:48;16.38;;;10.77;;
81374;SDS011;70828;51.158;4.998;2023-06-22T05:36:17;18.52;;;10.77;;
81374;SDS011;70828;51.158;4.998;2023-06-22T05:38:45;16.25;;;9.90;;
81374;SDS011;70828;51.158;4.998;2023-06-22T05:41:11;14.65;;;9.52;;
81374;SDS011;70828;51.158;4.998;2023-06-22T05:43:39;14.45;;;9.82;;
81374;SDS011;70828;51.158;4.998;2023-06-22T05:46:06;16.88;;;10.93;;
81374;SDS011;70828;51.158;4.998;2023-06-22T05:48:34;20.58;;;12.48;;
81374;SDS011;70828;51.158;4.998;2023-06-22T05:51:00;17.80;;;10.65;;
81374;SDS011;70828;51.158;4.998;2023-06-22T05:53:27;18.42;;;11.27;;
81374;SDS011;70828;51.158;4.998;2023-06-22T05:55:54;13.98;;;10.13;;
81374;SDS011;70828;51.158;4.998;2023-06-22T05:58:20;18.05;;;11.02;;
81374;SDS011;70828;51.158;4.998;2023-06-22T06:00:47;19.10;;;9.68;;
81374;SDS011;70828;51.158;4.998;2023-06-22T06:03:14;15.82;;;10.25;;
81374;SDS011;70828;51.158;4.998;2023-06-22T06:05:43;19.63;;;9.70;;
81374;SDS011;70828;51.158;4.998;2023-06-22T06:08:10;14.13;;;9.93;;
81374;SDS011;70828;51.158;4.998;2023-06-22T06:10:37;15.05;;;10.57;;
81374;SDS011;70828;51.158;4.998;2023-06-22T06:13:04;14.00;;;9.40;;
81374;SDS011;70828;51.158;4.998;2023-06-22T06:15:31;16.52;;;10.40;;
81374;SDS011;70828;51.158;4.998;2023-06-22T06:17:58;15.38;;;9.13;;
81374;SDS011;70828;51.158;4.998;2023-06-22T06:20:25;13.60;;;9.65;;
81374;SDS011;70828;51.158;4.998;2023-06-22T06:22:54;15.90;;;9.30;;
81374;SDS011;70828;51.158;4.998;2023-06-22T06:25:21;13.25;;;9.90;;
81374;SDS011;70828;51.158;4.998;2023-06-22T06:27:48;12.00;;;9.23;;
81374;SDS011;70828;51.158;4.998;2023-06-22T06:30:16;14.73;;;8.77;;
81374;SDS011;70828;51.158;4.998;2023-06-22T06:32:44;15.25;;;9.52;;
81374;SDS011;70828;51.158;4.998;2023-06-22T06:35:11;15.40;;;8.40;;
81374;SDS011;70828;51.158;4.998;2023-06-22T06:37:39;14.77;;;9.07;;
81374;SDS011;70828;51.158;4.998;2023-06-22T06:40:09;15.63;;;9.52;;
81374;SDS011;70828;51.158;4.998;2023-06-22T06:42:37;13.80;;;9.05;;
81374;SDS011;70828;51.158;4.998;2023-06-22T06:45:06;14.63;;;8.75;;
81374;SDS011;70828;51.158;4.998;2023-06-22T06:47:33;13.65;;;9.05;;
81374;SDS011;70828;51.158;4.998;2023-06-22T06:49:59;9.18;;;6.28;;
81374;SDS011;70828;51.158;4.998;2023-06-22T06:52:26;13.15;;;6.30;;
81374;SDS011;70828;51.158;4.998;2023-06-22T06:54:52;10.23;;;6.63;;
81374;SDS011;70828;51.158;4.998;2023-06-22T06:57:20;12.02;;;6.45;;
81374;SDS011;70828;51.158;4.998;2023-06-22T06:59:47;13.30;;;6.95;;
81374;SDS011;70828;51.158;4.998;2023-06-22T07:02:14;14.90;;;6.68;;
81374;SDS011;70828;51.158;4.998;2023-06-22T07:04:41;13.77;;;8.63;;
81374;SDS011;70828;51.158;4.998;2023-06-22T07:07:07;12.70;;;7.70;;
81374;SDS011;70828;51.158;4.998;2023-06-22T07:09:34;12.88;;;7.40;;
81374;SDS011;70828;51.158;4.998;2023-06-22T07:12:00;15.13;;;8.85;;
81374;SDS011;70828;51.158;4.998;2023-06-22T07:14:28;14.38;;;8.00;;
81374;SDS011;70828;51.158;4.998;2023-06-22T07:16:56;11.70;;;7.90;;
81374;SDS011;70828;51.158;4.998;2023-06-22T07:19:26;13.80;;;8.95;;
81374;SDS011;70828;51.158;4.998;2023-06-22T07:21:53;16.30;;;8.85;;
81374;SDS011;70828;51.158;4.998;2023-06-22T07:24:20;12.68;;;8.10;;
81374;SDS011;70828;51.158;4.998;2023-06-22T07:26:47;10.73;;;7.13;;
81374;SDS011;70828;51.158;4.998;2023-06-22T07:29:15;10.80;;;6.55;;
81374;SDS011;70828;51.158;4.998;2023-06-22T07:31:43;9.48;;;6.30;;
81374;SDS011;70828;51.158;4.998;2023-06-22T07:34:10;9.50;;;6.57;;
81374;SDS011;70828;51.158;4.998;2023-06-22T07:36:36;12.25;;;6.60;;
81374;SDS011;70828;51.158;4.998;2023-06-22T07:39:03;12.02;;;6.35;;
81374;SDS011;70828;51.158;4.998;2023-06-22T07:41:30;10.90;;;6.88;;
81374;SDS011;70828;51.158;4.998;2023-06-22T07:43:57;9.45;;;6.60;;
81374;SDS011;70828;51.158;4.998;2023-06-22T07:46:24;11.68;;;6.72;;
81374;SDS011;70828;51.158;4.998;2023-06-22T07:48:52;11.68;;;7.10;;
81374;SDS011;70828;51.158;4.998;2023-06-22T07:51:18;10.20;;;7.45;;
81374;SDS011;70828;51.158;4.998;2023-06-22T07:53:45;11.27;;;7.53;;
81374;SDS011;70828;51.158;4.998;2023-06-22T07:56:12;10.90;;;6.55;;
81374;SDS011;70828;51.158;4.998;2023-06-22T07:58:38;18.35;;;7.25;;
81374;SDS011;70828;51.158;4.998;2023-06-22T08:01:05;11.00;;;6.80;;
81374;SDS011;70828;51.158;4.998;2023-06-22T08:03:32;9.75;;;6.88;;
81374;SDS011;70828;51.158;4.998;2023-06-22T08:06:00;11.10;;;6.45;;
81374;SDS011;70828;51.158;4.998;2023-06-22T08:08:26;10.07;;;7.00;;
81374;SDS011;70828;51.158;4.998;2023-06-22T08:10:53;12.55;;;8.07;;
81374;SDS011;70828;51.158;4.998;2023-06-22T08:13:20;10.40;;;7.15;;
81374;SDS011;70828;51.158;4.998;2023-06-22T08:15:46;13.52;;;9.25;;
81374;SDS011;70828;51.158;4.998;2023-06-22T08:18:13;13.32;;;8.43;;
81374;SDS011;70828;51.158;4.998;2023-06-22T08:20:39;12.90;;;8.35;;
81374;SDS011;70828;51.158;4.998;2023-06-22T08:23:07;13.80;;;9.25;;
81374;SDS011;70828;51.158;4.998;2023-06-22T08:25:34;13.57;;;8.85;;
81374;SDS011;70828;51.158;4.998;2023-06-22T08:28:01;17.27;;;11.25;;
81374;SDS011;70828;51.158;4.998;2023-06-22T08:30:28;17.73;;;9.68;;
81374;SDS011;70828;51.158;4.998;2023-06-22T08:32:54;15.77;;;10.05;;
81374;SDS011;70828;51.158;4.998;2023-06-22T08:35:21;16.92;;;10.40;;
81374;SDS011;70828;51.158;4.998;2023-06-22T08:37:48;15.32;;;9.05;;
81374;SDS011;70828;51.158;4.998;2023-06-22T08:40:19;18.17;;;10.43;;
81374;SDS011;70828;51.158;4.998;2023-06-22T08:42:46;16.63;;;9.82;;
81374;SDS011;70828;51.158;4.998;2023-06-22T08:45:13;15.32;;;11.95;;
81374;SDS011;70828;51.158;4.998;2023-06-22T08:47:40;16.45;;;11.70;;
81374;SDS011;70828;51.158;4.998;2023-06-22T08:50:07;22.15;;;11.65;;
81374;SDS011;70828;51.158;4.998;2023-06-22T08:52:35;20.52;;;10.65;;
81374;SDS011;70828;51.158;4.998;2023-06-22T08:55:02;16.92;;;11.20;;
81374;SDS011;70828;51.158;4.998;2023-06-22T08:57:30;17.42;;;11.27;;
81374;SDS011;70828;51.158;4.998;2023-06-22T08:59:57;20.35;;;11.88;;
81374;SDS011;70828;51.158;4.998;2023-06-22T09:02:24;18.23;;;12.32;;
81374;SDS011;70828;51.158;4.998;2023-06-22T09:04:51;17.42;;;11.57;;
81374;SDS011;70828;51.158;4.998;2023-06-22T09:07:20;20.25;;;11.07;;
81374;SDS011;70828;51.158;4.998;2023-06-22T09:09:48;16.83;;;11.38;;
81374;SDS011;70828;51.158;4.998;2023-06-22T09:12:15;15.82;;;10.43;;
81374;SDS011;70828;51.158;4.998;2023-06-22T09:14:43;19.33;;;11.15;;
81374;SDS011;70828;51.158;4.998;2023-06-22T09:17:10;16.10;;;11.35;;
81374;SDS011;70828;51.158;4.998;2023-06-22T09:19:37;20.58;;;12.05;;
81374;SDS011;70828;51.158;4.998;2023-06-22T09:22:04;17.23;;;11.25;;
81374;SDS011;70828;51.158;4.998;2023-06-22T09:24:31;15.90;;;11.15;;
81374;SDS011;70828;51.158;4.998;2023-06-22T09:26:58;18.45;;;12.75;;
81374;SDS011;70828;51.158;4.998;2023-06-22T09:29:25;22.58;;;14.20;;
81374;SDS011;70828;51.158;4.998;2023-06-22T09:31:53;22.85;;;12.68;;
81374;SDS011;70828;51.158;4.998;2023-06-22T09:34:20;23.13;;;14.25;;
81374;SDS011;70828;51.158;4.998;2023-06-22T09:36:47;21.23;;;13.85;;
81374;SDS011;70828;51.158;4.998;2023-06-22T09:39:14;21.00;;;13.57;;
81374;SDS011;70828;51.158;4.998;2023-06-22T09:41:40;19.85;;;13.23;;
81374;SDS011;70828;51.158;4.998;2023-06-22T09:44:07;29.98;;;15.02;;
81374;SDS011;70828;51.158;4.998;2023-06-22T09:46:33;22.23;;;14.68;;
81374;SDS011;70828;51.158;4.998;2023-06-22T09:49:01;20.85;;;14.05;;
81374;SDS011;70828;51.158;4.998;2023-06-22T09:51:28;25.20;;;15.38;;
81374;SDS011;70828;51.158;4.998;2023-06-22T09:53:54;23.00;;;15.75;;
81374;SDS011;70828;51.158;4.998;2023-06-22T09:56:21;20.85;;;14.75;;
81374;SDS011;70828;51.158;4.998;2023-06-22T09:58:48;24.08;;;15.43;;
81374;SDS011;70828;51.158;4.998;2023-06-22T10:01:17;25.90;;;15.80;;
81374;SDS011;70828;51.158;4.998;2023-06-22T10:03:46;25.45;;;15.93;;
81374;SDS011;70828;51.158;4.998;2023-06-22T10:06:14;22.33;;;15.38;;
81374;SDS011;70828;51.158;4.998;2023-06-22T10:08:40;24.65;;;16.13;;
81374;SDS011;70828;51.158;4.998;2023-06-22T10:11:07;29.05;;;17.23;;
81374;SDS011;70828;51.158;4.998;2023-06-22T10:13:33;25.10;;;16.77;;
81374;SDS011;70828;51.158;4.998;2023-06-22T10:16:00;31.70;;;19.85;;
81374;SDS011;70828;51.158;4.998;2023-06-22T10:18:27;30.00;;;18.70;;
81374;SDS011;70828;51.158;4.998;2023-06-22T10:20:53;32.85;;;19.85;;
81374;SDS011;70828;51.158;4.998;2023-06-22T10:23:21;30.02;;;20.20;;
81374;SDS011;70828;51.158;4.998;2023-06-22T10:25:48;30.50;;;18.70;;
81374;SDS011;70828;51.158;4.998;2023-06-22T10:28:15;35.10;;;20.05;;
81374;SDS011;70828;51.158;4.998;2023-06-22T10:30:42;30.13;;;19.63;;
81374;SDS011;70828;51.158;4.998;2023-06-22T10:33:09;34.85;;;21.83;;
81374;SDS011;70828;51.158;4.998;2023-06-22T10:35:37;37.67;;;22.65;;
81374;SDS011;70828;51.158;4.998;2023-06-22T10:38:04;36.10;;;21.35;;
81374;SDS011;70828;51.158;4.998;2023-06-22T10:40:32;39.20;;;22.85;;
81374;SDS011;70828;51.158;4.998;2023-06-22T10:42:59;38.53;;;22.13;;
81374;SDS011;70828;51.158;4.998;2023-06-22T10:45:25;37.17;;;23.92;;
81374;SDS011;70828;51.158;4.998;2023-06-22T10:47:52;42.40;;;24.23;;
81374;SDS011;70828;51.158;4.998;2023-06-22T10:50:19;44.33;;;25.25;;
81374;SDS011;70828;51.158;4.998;2023-06-22T10:52:46;35.95;;;22.17;;
81374;SDS011;70828;51.158;4.998;2023-06-22T10:55:12;46.40;;;24.95;;
81374;SDS011;70828;51.158;4.998;2023-06-22T10:57:40;38.33;;;23.23;;
81374;SDS011;70828;51.158;4.998;2023-06-22T11:00:09;38.33;;;23.45;;
81374;SDS011;70828;51.158;4.998;2023-06-22T11:02:37;34.78;;;22.10;;
81374;SDS011;70828;51.158;4.998;2023-06-22T11:05:04;39.45;;;23.55;;
81374;SDS011;70828;51.158;4.998;2023-06-22T11:07:31;39.15;;;22.90;;
81374;SDS011;70828;51.158;4.998;2023-06-22T11:09:57;33.97;;;20.92;;
81374;SDS011;70828;51.158;4.998;2023-06-22T11:12:24;38.53;;;21.38;;
81374;SDS011;70828;51.158;4.998;2023-06-22T11:14:52;36.47;;;21.90;;
81374;SDS011;70828;51.158;4.998;2023-06-22T11:17:19;42.13;;;23.80;;
81374;SDS011;70828;51.158;4.998;2023-06-22T11:19:45;37.80;;;23.13;;
81374;SDS011;70828;51.158;4.998;2023-06-22T11:22:12;39.60;;;22.40;;
81374;SDS011;70828;51.158;4.998;2023-06-22T11:24:39;37.47;;;23.05;;
81374;SDS011;70828;51.158;4.998;2023-06-22T11:27:05;36.67;;;22.48;;
81374;SDS011;70828;51.158;4.998;2023-06-22T11:29:32;37.30;;;22.92;;
81374;SDS011;70828;51.158;4.998;2023-06-22T11:32:00;41.22;;;25.70;;
81374;SDS011;70828;51.158;4.998;2023-06-22T11:34:27;44.90;;;25.02;;
81374;SDS011;70828;51.158;4.998;2023-06-22T11:36:53;42.22;;;24.95;;
81374;SDS011;70828;51.158;4.998;2023-06-22T11:39:20;45.28;;;26.30;;
81374;SDS011;70828;51.158;4.998;2023-06-22T11:41:47;41.50;;;25.63;;
81374;SDS011;70828;51.158;4.998;2023-06-22T11:44:13;42.97;;;26.70;;
81374;SDS011;70828;51.158;4.998;2023-06-22T11:46:40;43.47;;;25.20;;
81374;SDS011;70828;51.158;4.998;2023-06-22T11:49:08;44.22;;;26.48;;
81374;SDS011;70828;51.158;4.998;2023-06-22T11:51:35;50.05;;;25.65;;
81374;SDS011;70828;51.158;4.998;2023-06-22T11:54:01;43.50;;;24.35;;
81374;SDS011;70828;51.158;4.998;2023-06-22T11:56:28;39.15;;;24.98;;
81374;SDS011;70828;51.158;4.998;2023-06-22T11:58:55;43.17;;;24.48;;
81374;SDS011;70828;51.158;4.998;2023-06-22T12:01:21;40.65;;;25.50;;
81374;SDS011;70828;51.158;4.998;2023-06-22T12:03:48;42.05;;;25.63;;
81374;SDS011;70828;51.158;4.998;2023-06-22T12:06:16;38.75;;;24.60;;
81374;SDS011;70828;51.158;4.998;2023-06-22T12:08:42;34.92;;;21.95;;
81374;SDS011;70828;51.158;4.998;2023-06-22T12:11:09;39.25;;;23.10;;
81374;SDS011;70828;51.158;4.998;2023-06-22T12:13:35;37.97;;;23.30;;
81374;SDS011;70828;51.158;4.998;2023-06-22T12:16:02;40.75;;;25.42;;
81374;SDS011;70828;51.158;4.998;2023-06-22T12:18:29;38.38;;;25.08;;
81374;SDS011;70828;51.158;4.998;2023-06-22T12:20:55;45.25;;;23.83;;
81374;SDS011;70828;51.158;4.998;2023-06-22T12:23:23;42.33;;;26.50;;
81374;SDS011;70828;51.158;4.998;2023-06-22T12:25:50;43.55;;;25.92;;
81374;SDS011;70828;51.158;4.998;2023-06-22T12:28:17;39.92;;;25.13;;
81374;SDS011;70828;51.158;4.998;2023-06-22T12:30:43;40.83;;;24.90;;
81374;SDS011;70828;51.158;4.998;2023-06-22T12:33:10;41.70;;;24.58;;
81374;SDS011;70828;51.158;4.998;2023-06-22T12:35:37;43.17;;;25.58;;
81374;SDS011;70828;51.158;4.998;2023-06-22T12:38:03;43.70;;;26.73;;
81374;SDS011;70828;51.158;4.998;2023-06-22T12:40:32;45.55;;;28.58;;
81374;SDS011;70828;51.158;4.998;2023-06-22T12:42:59;47.03;;;27.75;;
81374;SDS011;70828;51.158;4.998;2023-06-22T12:45:27;45.75;;;26.25;;
81374;SDS011;70828;51.158;4.998;2023-06-22T12:47:56;47.00;;;26.60;;
81374;SDS011;70828;51.158;4.998;2023-06-22T12:50:23;45.65;;;27.95;;
81374;SDS011;70828;51.158;4.998;2023-06-22T12:52:49;46.63;;;29.02;;
81374;SDS011;70828;51.158;4.998;2023-06-22T12:55:16;46.45;;;29.63;;
81374;SDS011;70828;51.158;4.998;2023-06-22T12:57:44;46.65;;;26.80;;
81374;SDS011;70828;51.158;4.998;2023-06-22T13:00:11;42.95;;;28.05;;
81374;SDS011;70828;51.158;4.998;2023-06-22T13:02:38;49.17;;;26.27;;
81374;SDS011;70828;51.158;4.998;2023-06-22T13:05:05;44.17;;;27.83;;
81374;SDS011;70828;51.158;4.998;2023-06-22T13:07:32;43.47;;;26.80;;
81374;SDS011;70828;51.158;4.998;2023-06-22T13:09:59;44.03;;;26.95;;
81374;SDS011;70828;51.158;4.998;2023-06-22T13:12:25;41.55;;;27.92;;
81374;SDS011;70828;51.158;4.998;2023-06-22T13:14:54;47.90;;;30.77;;
81374;SDS011;70828;51.158;4.998;2023-06-22T13:17:20;43.80;;;27.52;;
81374;SDS011;70828;51.158;4.998;2023-06-22T13:19:47;46.38;;;28.08;;
81374;SDS011;70828;51.158;4.998;2023-06-22T13:22:27;42.47;;;26.60;;
81374;SDS011;70828;51.158;4.998;2023-06-22T13:24:55;41.85;;;25.52;;
81374;SDS011;70828;51.158;4.998;2023-06-22T13:27:22;44.83;;;26.52;;
81374;SDS011;70828;51.158;4.998;2023-06-22T13:29:49;45.80;;;30.10;;
81374;SDS011;70828;51.158;4.998;2023-06-22T13:32:17;44.50;;;28.35;;
81374;SDS011;70828;51.158;4.998;2023-06-22T13:34:43;43.00;;;27.73;;
81374;SDS011;70828;51.158;4.998;2023-06-22T13:37:10;43.33;;;27.00;;
81374;SDS011;70828;51.158;4.998;2023-06-22T13:39:36;44.92;;;26.95;;
81374;SDS011;70828;51.158;4.998;2023-06-22T13:42:03;37.67;;;24.92;;
81374;SDS011;70828;51.158;4.998;2023-06-22T13:44:30;38.28;;;24.50;;
81374;SDS011;70828;51.158;4.998;2023-06-22T13:46:57;36.88;;;24.80;;
81374;SDS011;70828;51.158;4.998;2023-06-22T13:49:25;37.78;;;25.75;;
81374;SDS011;70828;51.158;4.998;2023-06-22T13:51:52;43.35;;;25.48;;
81374;SDS011;70828;51.158;4.998;2023-06-22T13:54:18;41.35;;;25.30;;
81374;SDS011;70828;51.158;4.998;2023-06-22T13:56:45;38.58;;;24.25;;
81374;SDS011;70828;51.158;4.998;2023-06-22T13:59:12;40.70;;;25.73;;
81374;SDS011;70828;51.158;4.998;2023-06-22T14:01:38;36.10;;;24.17;;
81374;SDS011;70828;51.158;4.998;2023-06-22T14:04:06;36.17;;;24.40;;
81374;SDS011;70828;51.158;4.998;2023-06-22T14:06:34;35.53;;;22.77;;
81374;SDS011;70828;51.158;4.998;2023-06-22T14:09:00;39.47;;;24.55;;
81374;SDS011;70828;51.158;4.998;2023-06-22T14:11:27;38.10;;;23.55;;
81374;SDS011;70828;51.158;4.998;2023-06-22T14:13:54;29.17;;;15.93;;
81374;SDS011;70828;51.158;4.998;2023-06-22T14:16:21;25.55;;;16.85;;
81374;SDS011;70828;51.158;4.998;2023-06-22T14:18:47;34.88;;;22.98;;
81374;SDS011;70828;51.158;4.998;2023-06-22T14:21:14;35.92;;;24.58;;
81374;SDS011;70828;51.158;4.998;2023-06-22T14:23:42;34.70;;;22.33;;
81374;SDS011;70828;51.158;4.998;2023-06-22T14:26:14;36.38;;;22.50;;
81374;SDS011;70828;51.158;4.998;2023-06-22T14:28:42;39.80;;;24.48;;
81374;SDS011;70828;51.158;4.998;2023-06-22T14:31:12;33.22;;;20.42;;
81374;SDS011;70828;51.158;4.998;2023-06-22T14:33:38;40.40;;;23.73;;